KMPV/MPV METAR and TAF weather

Enter ICAO airport designator
Station Type Date Time Source
KMPV METAR 2019/06/17 03:51 UTC NOAA

KMPV 170351Z AUTO 00000KT 10SM CLR 11/11 A2993 RMK AO2 SLP138 T01110106


Station Type Date Time Source
KMPV Decoded METAR 2019/06/17 03:51 UTC NOAA

KNAPP STATE AIRPORT, VT, United States (KMPV) 44-12N 072-34W 343M
Jun 16, 2019 - 11:51 PM EDT / 2019.06.17 0351 UTC
Wind: Calm:0
Visibility: 10 mile(s):0
Sky conditions: clear
Temperature: 52.0 F (11.1 C)
Dew Point: 51.1 F (10.6 C)
Relative Humidity: 96%
Pressure (altimeter): 29.93 in. Hg (1013 hPa)
ob: KMPV 170351Z AUTO 00000KT 10SM CLR 11/11 A2993 RMK AO2 SLP138 T01110106
cycle: 4

Station Type Date Time Source
KMPV TAF 2019/06/16 18:22 UTC NOAA

TAF KMPV 161720Z 1618/1718 30003KT P6SM BKN025
FM162100 31004KT P6SM SCT060
FM170400 00000KT 3SM BR SCT007
FM170800 00000KT 1/2SM FG VV002
FM171300 33004KT P6SM SCT003 SCT150

Example: see airport list